Oak Harbor, WA

2:37 AM PDT on September 23, 2014 (GMT -0700)
Western Village | Change Station
CLOSE
Current Station
Personal Weather Station
Location: Oak Harbor, WA
Elevation: 72 ft
Nearby Weather Stations

Elev 72 ft 48.30 °N, 122.66 °W | Updated 45 seconds ago

Partly Cloudy
Partly Cloudy
55.8 °F
Feels Like 55.8 °F
N
0.0
Wind Variable Wind from WNW
Gusts 0.0 mph

Today
High -- | Low -- °F
--% Chance of Precip.
Yesterday
High -- | Low -- °F
Precip. -- in
6:58 AM 7:06 PM
Waning Crescent, 1% visible
Pressure 29.91 in
Visibility 10.0 miles
Clouds Few 4000 ft
Scattered Clouds 10000 ft
Scattered Clouds 18000 ft
Dew Point 54 °F
Humidity 94%
Rainfall 0.00 in
Snow Depth 0 in , 0 in , 0 in
UV 0 out of 12
Pollen .80 out of 12
PM2.5 Good
Flu Activity Not available.
METAR KNUW 230856Z 11006KT 10SM FEW040 SCT100 SCT180 15/12 A2990 RMK AO2 SLP128 T01500122 55005

More Conditions Fewer Conditions

Pressure 29.91 in
Visibility 10.0 miles
Clouds Few 4000 ft
Scattered Clouds 10000 ft
Scattered Clouds 18000 ft
Dew Point 54 °F
Humidity 94%
Rainfall 0.00 in
Snow Depth 0 in , 0 in , 0 in
UV 0 out of 12
Pollen .80 out of 12
PM2.5 Good
Flu Activity Not available.
METAR KNUW 230856Z 11006KT 10SM FEW040 SCT100 SCT180 15/12 A2990 RMK AO2 SLP128 T01500122 55005

More Conditions Fewer Conditions

10-Day Weather Forecast

Almanac

Astronomy

Sep. 23, 2014 Rise Set
Actual Time 6:58 AM PDT 7:06 PM PDT
Civil Twilight 6:27 AM PDT 7:37 PM PDT
Nautical Twilight 5:50 AM PDT 8:13 PM PDT
Astronomical Twilight 5:13 AM PDT 8:51 PM PDT
Moon 6:27 AM PDT 6:46 PM PDT
Length of Visible Light 13h 09m
Length of Day
12h 07m
Tomorrow will be 3m 29s shorter.
Waning Crescent, 1% of the Moon is Illuminated
Today
Waning Crescent
Sep 24
New
Oct 1
First Quarter
Oct 8
Full
Oct 15
Last Quarter

Today's Extremes

State Highs State Lows

Community

WunderPhotos

Upload Photos

1,755,644 photos uploaded!

Nearby

Air Quality

  Air Quality AQ Index Pollutant
Yesterday Good
PM2.5
Current Good
PM2.5
Tuesday Good
PM2.5
Wednesday Good
PM2.5
Thursday Good
PM2.5
Friday Good
PM2.5

Snow Depth

Station Depth Elevation
Trough 0 in 5300 ft
Park Creek Ridge 0 in 4600 ft
Harts Pass 0 in 6500 ft
Surprise Lakes 1 in 4250 ft
Spruce Springs 0 in 5700 ft

Earthquake Activity

City Distance Mag. Time & Date
No recent earthquake activity has been reported nearby.
Minimum magnitude displayed is 2.5.

Coastal Water Temperatures

Place Temperature
Port Townsend, WA 52.0 °F
Friday Harbor, WA 52.0 °F
Port Angeles, WA 53.1 °F

Nearby Weather Stations